createdAt,value
2024-02-20T00:02:23.538Z,5.79
2024-02-20T00:04:51.247Z,5.77
2024-02-20T00:07:19.517Z,5.76
2024-02-20T00:09:46.644Z,5.74
2024-02-20T00:12:13.168Z,5.72
2024-02-20T00:14:39.675Z,5.68
2024-02-20T00:17:06.301Z,5.69
2024-02-20T00:19:33.216Z,5.65
2024-02-20T00:21:59.800Z,5.66
2024-02-20T00:24:26.439Z,5.64
2024-02-20T00:26:52.950Z,5.63
2024-02-20T00:29:19.403Z,5.60
2024-02-20T00:31:47.541Z,5.59
2024-02-20T00:34:14.107Z,5.58
2024-02-20T00:36:40.924Z,5.57
2024-02-20T00:39:08.212Z,5.55
2024-02-20T00:41:34.689Z,5.56
2024-02-20T00:44:01.205Z,5.57
2024-02-20T00:46:27.743Z,5.57
2024-02-20T00:48:56.647Z,5.54
2024-02-20T00:51:23.420Z,5.51
2024-02-20T00:53:50.507Z,5.52
2024-02-20T00:56:17.271Z,5.52
2024-02-20T00:58:44.942Z,5.53
2024-02-20T01:01:15.142Z,5.54
2024-02-20T01:03:44.324Z,5.49
2024-02-20T01:06:14.103Z,5.48
2024-02-20T01:08:41.122Z,5.47
2024-02-20T01:11:07.730Z,5.47
2024-02-20T01:13:34.950Z,5.46
2024-02-20T01:16:01.667Z,5.45
2024-02-20T01:18:28.308Z,5.46
2024-02-20T01:20:55.317Z,5.48
2024-02-20T01:23:21.928Z,5.49
2024-02-20T01:25:48.445Z,5.50
2024-02-20T01:28:15.219Z,5.51
2024-02-20T01:30:43.778Z,5.49
2024-02-20T01:33:10.408Z,5.51
2024-02-20T01:35:38.813Z,5.52
2024-02-20T01:38:06.088Z,5.53
2024-02-20T01:40:32.905Z,5.53
2024-02-20T01:43:06.058Z,5.54
2024-02-20T01:45:33.086Z,5.56
2024-02-20T01:48:02.710Z,5.57
2024-02-20T01:50:36.234Z,5.59
2024-02-20T01:53:04.002Z,5.60
2024-02-20T01:55:30.891Z,5.62
2024-02-20T01:57:57.753Z,5.63
2024-02-20T02:00:24.288Z,5.63
2024-02-20T02:02:51.005Z,5.65
2024-02-20T02:05:17.994Z,5.65
2024-02-20T02:07:44.737Z,5.65
2024-02-20T02:10:11.426Z,5.66
2024-02-20T02:12:38.094Z,5.66
2024-02-20T02:15:04.857Z,5.65
2024-02-20T02:17:31.369Z,5.66
2024-02-20T02:19:57.955Z,5.67
2024-02-20T02:22:24.479Z,5.68
2024-02-20T02:24:51.081Z,5.67
2024-02-20T02:27:17.675Z,5.70
2024-02-20T02:29:44.304Z,5.70
2024-02-20T02:32:10.801Z,5.69
2024-02-20T02:34:37.430Z,5.70
2024-02-20T02:37:04.181Z,5.73
2024-02-20T02:39:30.719Z,5.72
2024-02-20T02:41:57.241Z,5.72
2024-02-20T02:44:24.778Z,5.76
2024-02-20T02:46:51.309Z,5.74
2024-02-20T02:49:18.169Z,5.77
2024-02-20T02:51:45.632Z,5.76
2024-02-20T02:54:12.279Z,5.75
2024-02-20T02:56:38.883Z,5.75
2024-02-20T02:59:05.953Z,5.74
2024-02-20T03:01:32.763Z,5.74
2024-02-20T03:03:59.970Z,5.74
2024-02-20T03:06:27.000Z,5.74
2024-02-20T03:08:53.569Z,5.75
2024-02-20T03:11:20.096Z,5.73
2024-02-20T03:13:46.757Z,5.74
2024-02-20T03:16:14.623Z,5.73
2024-02-20T03:18:43.553Z,5.75
2024-02-20T03:21:10.186Z,5.77
2024-02-20T03:23:36.813Z,5.77
2024-02-20T03:26:04.705Z,5.79
2024-02-20T03:28:31.407Z,5.80
2024-02-20T03:30:58.064Z,5.80
2024-02-20T03:33:27.110Z,5.81
2024-02-20T03:35:53.855Z,5.81
2024-02-20T03:38:21.519Z,5.81
2024-02-20T03:40:48.099Z,5.81
2024-02-20T03:43:14.593Z,5.82
2024-02-20T03:45:41.223Z,5.82
2024-02-20T03:48:08.058Z,5.81
2024-02-20T03:50:35.863Z,5.82
2024-02-20T03:53:05.730Z,5.82
2024-02-20T03:55:34.378Z,5.81
2024-02-20T03:58:01.144Z,5.80
2024-02-20T04:00:27.685Z,5.80
2024-02-20T04:02:55.501Z,5.79
2024-02-20T04:05:22.024Z,5.79
2024-02-20T04:07:48.588Z,5.78
2024-02-20T04:10:16.408Z,5.77
2024-02-20T04:12:44.194Z,5.78
2024-02-20T04:15:13.689Z,5.76
2024-02-20T04:17:40.551Z,5.75
2024-02-20T04:20:10.223Z,5.71
2024-02-20T04:22:41.164Z,5.71
2024-02-20T04:25:09.320Z,5.68
2024-02-20T04:27:39.298Z,5.67
2024-02-20T04:30:08.405Z,5.66
2024-02-20T04:32:35.786Z,5.64
2024-02-20T04:35:02.597Z,5.64
2024-02-20T04:37:29.503Z,5.65
2024-02-20T04:39:56.678Z,5.61
2024-02-20T04:42:23.991Z,5.61
2024-02-20T04:44:51.606Z,5.61
2024-02-20T04:47:20.899Z,5.59
2024-02-20T04:49:48.583Z,5.59
2024-02-20T04:52:15.941Z,5.58
2024-02-20T04:54:42.538Z,5.59
2024-02-20T04:57:09.286Z,5.58
2024-02-20T04:59:35.726Z,5.58
2024-02-20T05:02:03.349Z,5.59
2024-02-20T05:04:30.134Z,5.59
2024-02-20T05:06:56.773Z,5.58
2024-02-20T05:09:23.294Z,5.59
2024-02-20T05:11:49.808Z,5.60
2024-02-20T05:14:16.283Z,5.60
2024-02-20T05:16:44.902Z,5.60
2024-02-20T05:19:11.894Z,5.61
2024-02-20T05:21:38.458Z,5.62
2024-02-20T05:24:05.208Z,5.63
2024-02-20T05:26:31.792Z,5.63
2024-02-20T05:28:58.263Z,5.64
2024-02-20T05:31:30.691Z,5.66
2024-02-20T05:34:02.179Z,5.66
2024-02-20T05:36:34.625Z,5.68
2024-02-20T05:39:03.002Z,5.68
2024-02-20T05:41:30.820Z,5.70
2024-02-20T05:43:59.052Z,5.69
2024-02-20T05:46:28.002Z,5.71
2024-02-20T05:48:55.765Z,5.72
2024-02-20T05:51:24.515Z,5.72
2024-02-20T05:53:51.386Z,5.73
2024-02-20T05:56:18.342Z,5.73
2024-02-20T05:58:44.839Z,5.72
2024-02-20T06:01:12.633Z,5.72
2024-02-20T06:03:39.474Z,5.70
2024-02-20T06:06:08.564Z,5.69
2024-02-20T06:08:36.630Z,5.68
2024-02-20T06:11:03.331Z,5.66
2024-02-20T06:13:29.845Z,5.65
2024-02-20T06:15:56.340Z,5.63
2024-02-20T06:18:22.878Z,5.62
2024-02-20T06:20:50.149Z,5.61
2024-02-20T06:23:16.663Z,5.60
2024-02-20T06:25:44.161Z,5.60
2024-02-20T06:28:11.568Z,5.59
2024-02-20T06:30:38.109Z,5.57
2024-02-20T06:33:04.987Z,5.57
2024-02-20T06:35:33.434Z,5.54
2024-02-20T06:38:00.344Z,5.54
2024-02-20T06:40:28.356Z,5.52
2024-02-20T06:42:55.067Z,5.51
2024-02-20T06:45:23.733Z,5.50
2024-02-20T06:47:50.543Z,5.48
2024-02-20T06:50:20.140Z,5.48
2024-02-20T06:52:47.003Z,5.47
2024-02-20T06:55:14.509Z,5.46
2024-02-20T06:57:41.306Z,5.47
2024-02-20T07:00:14.040Z,5.46
2024-02-20T07:02:43.927Z,5.46
2024-02-20T07:05:19.939Z,5.44
2024-02-20T07:07:47.472Z,5.46
2024-02-20T07:10:16.491Z,5.46
2024-02-20T07:12:43.217Z,5.47
2024-02-20T07:15:14.400Z,5.47
2024-02-20T07:17:40.953Z,5.49
2024-02-20T07:20:12.640Z,5.51
2024-02-20T07:22:41.005Z,5.53
2024-02-20T07:25:11.611Z,5.56
2024-02-20T07:27:40.256Z,5.58
2024-02-20T07:30:14.008Z,5.60
2024-02-20T07:32:42.156Z,5.63
2024-02-20T07:35:13.760Z,5.64
2024-02-20T07:37:41.694Z,5.65
2024-02-20T07:40:15.073Z,5.68
2024-02-20T07:42:41.720Z,5.71
2024-02-20T07:45:10.310Z,5.73
2024-02-20T07:47:37.240Z,5.75
2024-02-20T07:50:06.989Z,5.76
2024-02-20T07:52:34.609Z,5.78
2024-02-20T07:55:01.514Z,5.80
2024-02-20T07:57:28.272Z,5.83
2024-02-20T07:59:54.856Z,5.85
2024-02-20T08:02:21.676Z,5.86
2024-02-20T08:04:49.516Z,5.88
2024-02-20T08:07:16.357Z,5.90
2024-02-20T08:09:43.185Z,5.90
2024-02-20T08:12:12.187Z,5.94
2024-02-20T08:14:38.965Z,5.95
2024-02-20T08:17:05.710Z,5.99
2024-02-20T08:19:32.656Z,6.01
2024-02-20T08:21:59.570Z,6.03
2024-02-20T08:24:26.207Z,6.07
2024-02-20T08:26:54.941Z,6.11
2024-02-20T08:29:21.465Z,6.17
2024-02-20T08:31:48.423Z,6.21
2024-02-20T08:34:15.681Z,6.25
2024-02-20T08:36:42.322Z,6.31
2024-02-20T08:39:08.830Z,6.36
2024-02-20T08:41:35.534Z,6.43
2024-02-20T08:44:02.181Z,6.49
2024-02-20T08:46:29.335Z,6.54
2024-02-20T08:48:56.002Z,6.60
2024-02-20T08:51:22.591Z,6.65
2024-02-20T08:53:49.067Z,6.70
2024-02-20T08:56:15.530Z,6.72
2024-02-20T08:58:42.760Z,6.74
2024-02-20T09:01:10.026Z,6.76
2024-02-20T09:03:39.710Z,6.77
2024-02-20T09:06:07.050Z,6.78
2024-02-20T09:08:33.773Z,6.79
2024-02-20T09:11:05.569Z,6.80
2024-02-20T09:13:35.732Z,6.82
2024-02-20T09:16:03.805Z,6.84
2024-02-20T09:18:37.563Z,6.86
2024-02-20T09:21:05.530Z,6.88
2024-02-20T09:23:38.773Z,6.92
2024-02-20T09:26:07.139Z,6.95
2024-02-20T09:28:33.828Z,6.99
2024-02-20T09:31:03.203Z,7.03
2024-02-20T09:33:34.049Z,7.08
2024-02-20T09:36:01.324Z,7.12
2024-02-20T09:38:28.011Z,7.15
2024-02-20T09:40:56.876Z,7.19
2024-02-20T09:43:26.758Z,7.22
2024-02-20T09:45:57.152Z,7.26
2024-02-20T09:48:25.116Z,7.31
2024-02-20T09:50:55.465Z,7.37
2024-02-20T09:53:23.785Z,7.43
2024-02-20T09:55:56.485Z,7.47
2024-02-20T09:58:23.600Z,7.52
2024-02-20T10:00:58.315Z,7.57
2024-02-20T10:03:33.626Z,7.65
2024-02-20T10:06:03.192Z,7.68
2024-02-20T10:08:29.856Z,7.72
2024-02-20T10:11:05.647Z,7.76
2024-02-20T10:13:43.434Z,7.83
2024-02-20T10:16:10.186Z,7.86
2024-02-20T10:18:36.816Z,7.92
2024-02-20T10:21:06.521Z,7.98
2024-02-20T10:23:33.012Z,8.01
2024-02-20T10:26:02.724Z,8.06
2024-02-20T10:28:29.451Z,8.08
2024-02-20T10:31:03.032Z,8.12
2024-02-20T10:33:32.416Z,8.14
2024-02-20T10:36:04.535Z,8.17
2024-02-20T10:38:31.407Z,8.20
2024-02-20T10:41:03.126Z,8.23
2024-02-20T10:43:30.509Z,8.26
2024-02-20T10:45:59.585Z,8.32
2024-02-20T10:48:31.857Z,8.33
2024-02-20T10:51:03.359Z,8.36
2024-02-20T10:53:30.920Z,8.38
2024-02-20T10:56:01.031Z,8.42
2024-02-20T10:58:29.146Z,8.46
2024-02-20T11:00:59.563Z,8.50
2024-02-20T11:03:31.154Z,8.53
2024-02-20T11:06:04.570Z,8.57
2024-02-20T11:08:32.284Z,8.61
2024-02-20T11:11:17.730Z,8.64
2024-02-20T11:13:45.178Z,8.68
2024-02-20T11:16:12.600Z,8.74
2024-02-20T11:18:39.942Z,8.80
2024-02-20T11:21:09.387Z,8.82
2024-02-20T11:23:38.710Z,8.87
2024-02-20T11:26:12.286Z,8.91
2024-02-20T11:28:40.280Z,8.94
2024-02-20T11:31:08.389Z,9.00
2024-02-20T11:33:36.088Z,9.04
2024-02-20T11:36:06.189Z,9.04
2024-02-20T11:38:32.661Z,9.07
2024-02-20T11:41:04.998Z,9.09
2024-02-20T11:43:31.519Z,9.13
2024-02-20T11:46:02.251Z,9.19
2024-02-20T11:48:30.194Z,9.22
2024-02-20T11:50:59.377Z,9.29
2024-02-20T11:53:26.997Z,9.29
2024-02-20T11:56:00.780Z,9.33
2024-02-20T11:58:29.763Z,9.33
2024-02-20T12:01:05.566Z,9.38
2024-02-20T12:03:35.415Z,9.44
2024-02-20T12:06:05.688Z,9.46
2024-02-20T12:08:42.132Z,9.50
2024-02-20T12:11:10.615Z,9.54
2024-02-20T12:13:37.344Z,9.61
2024-02-20T12:16:04.200Z,9.65
2024-02-20T12:18:33.476Z,9.70
2024-02-20T12:21:10.422Z,9.75
2024-02-20T12:23:41.717Z,9.80
2024-02-20T12:26:09.676Z,9.83
2024-02-20T12:28:37.502Z,9.85
2024-02-20T12:31:09.682Z,9.86
2024-02-20T12:33:37.322Z,9.87
2024-02-20T12:36:04.434Z,9.89
2024-02-20T12:38:30.964Z,9.90
2024-02-20T12:40:57.645Z,9.91
2024-02-20T12:43:24.642Z,9.97
2024-02-20T12:45:52.335Z,9.97
2024-02-20T12:48:19.049Z,9.99
2024-02-20T12:50:50.685Z,10.04
2024-02-20T12:53:17.607Z,10.09
2024-02-20T12:55:46.677Z,10.15
2024-02-20T12:58:13.934Z,10.18
2024-02-20T13:00:49.854Z,10.20
2024-02-20T13:03:18.722Z,10.19
2024-02-20T13:05:49.035Z,10.19
2024-02-20T13:08:15.817Z,10.23
2024-02-20T13:10:46.700Z,10.27
2024-02-20T13:13:14.582Z,10.28
2024-02-20T13:15:43.769Z,10.32
2024-02-20T13:18:10.292Z,10.37
2024-02-20T13:20:39.238Z,10.45
2024-02-20T13:23:05.861Z,10.51
2024-02-20T13:25:34.238Z,10.57
2024-02-20T13:28:01.514Z,10.64
2024-02-20T13:30:30.046Z,10.69
2024-02-20T13:32:58.662Z,10.73
2024-02-20T13:35:25.513Z,10.73
2024-02-20T13:37:52.224Z,10.78
2024-02-20T13:40:19.764Z,10.77
2024-02-20T13:42:46.783Z,10.77
2024-02-20T13:45:18.626Z,10.77
2024-02-20T13:47:45.911Z,10.73
2024-02-20T13:50:13.956Z,10.70
2024-02-20T13:52:40.686Z,10.69
2024-02-20T13:55:09.121Z,10.65
2024-02-20T13:57:36.899Z,10.58
2024-02-20T14:00:07.911Z,10.54
2024-02-20T14:02:35.172Z,10.53
2024-02-20T14:05:03.161Z,10.51
2024-02-20T14:07:31.248Z,10.50
2024-02-20T14:09:57.787Z,10.46
2024-02-20T14:12:25.174Z,10.41
2024-02-20T14:14:53.026Z,10.35
2024-02-20T14:17:21.274Z,10.33
2024-02-20T14:19:47.777Z,10.29
2024-02-20T14:22:15.193Z,10.25
2024-02-20T14:24:41.908Z,10.20
2024-02-20T14:27:08.474Z,10.17
2024-02-20T14:29:36.947Z,10.18
2024-02-20T14:32:04.244Z,10.13
2024-02-20T14:34:31.127Z,10.10
2024-02-20T14:36:58.410Z,10.12
2024-02-20T14:39:24.970Z,10.10
2024-02-20T14:41:51.798Z,10.08
2024-02-20T14:44:18.575Z,10.07
2024-02-20T14:46:45.413Z,10.02
2024-02-20T14:49:15.167Z,10.02
2024-02-20T14:51:42.372Z,10.01
2024-02-20T14:54:09.190Z,9.94
2024-02-20T14:56:35.673Z,9.85
2024-02-20T14:59:02.412Z,9.81
2024-02-20T15:01:29.891Z,9.80
2024-02-20T15:03:57.573Z,9.78
2024-02-20T15:06:24.615Z,9.78
2024-02-20T15:08:51.545Z,9.78
2024-02-20T15:11:21.404Z,9.76
2024-02-20T15:13:48.663Z,9.73
2024-02-20T15:16:15.212Z,9.72
2024-02-20T15:18:41.746Z,9.70
2024-02-20T15:21:09.122Z,9.69
2024-02-20T15:23:35.764Z,9.71
2024-02-20T15:26:07.358Z,9.71
2024-02-20T15:28:34.841Z,9.68
2024-02-20T15:31:05.280Z,9.67
2024-02-20T15:33:32.317Z,9.65
2024-02-20T15:36:03.715Z,9.67
2024-02-20T15:38:30.274Z,9.68
2024-02-20T15:40:56.898Z,9.66
2024-02-20T15:43:25.155Z,9.67
2024-02-20T15:45:52.941Z,9.67
2024-02-20T15:48:20.698Z,9.66
2024-02-20T15:50:56.090Z,9.65
2024-02-20T15:53:23.557Z,9.65
2024-02-20T15:55:52.872Z,9.64
2024-02-20T15:58:23.930Z,9.63
2024-02-20T16:01:01.282Z,9.62
2024-02-20T16:03:27.960Z,9.61
2024-02-20T16:05:56.195Z,9.62
2024-02-20T16:08:22.768Z,9.62
2024-02-20T16:11:02.727Z,9.61
2024-02-20T16:13:29.413Z,9.62
2024-02-20T16:16:00.436Z,9.61
2024-02-20T16:18:29.064Z,9.61
2024-02-20T16:21:02.489Z,9.61
2024-02-20T16:23:29.395Z,9.60
2024-02-20T16:26:04.194Z,9.58
2024-02-20T16:28:31.355Z,9.58
2024-02-20T16:31:00.788Z,9.57
2024-02-20T16:33:28.781Z,9.56
2024-02-20T16:35:58.482Z,9.54
2024-02-20T16:38:28.907Z,9.54
2024-02-20T16:40:58.433Z,9.54
2024-02-20T16:43:25.088Z,9.51
2024-02-20T16:45:51.631Z,9.52
2024-02-20T16:48:18.304Z,9.52
2024-02-20T16:50:47.626Z,9.52
2024-02-20T16:53:16.354Z,9.51
2024-02-20T16:55:43.903Z,9.51
2024-02-20T16:58:11.204Z,9.50
2024-02-20T17:00:39.350Z,9.50
2024-02-20T17:03:08.091Z,9.49
2024-02-20T17:05:36.223Z,9.49
2024-02-20T17:08:05.758Z,9.48
2024-02-20T17:10:36.820Z,9.49
2024-02-20T17:13:04.655Z,9.49
2024-02-20T17:15:31.145Z,9.48
2024-02-20T17:17:57.718Z,9.47
2024-02-20T17:20:24.349Z,9.48
2024-02-20T17:22:51.300Z,9.47
2024-02-20T17:25:18.055Z,9.48
2024-02-20T17:27:44.539Z,9.47
2024-02-20T17:30:11.576Z,9.45
2024-02-20T17:32:38.135Z,9.46
2024-02-20T17:35:05.283Z,9.45
2024-02-20T17:37:32.019Z,9.44
2024-02-20T17:40:00.291Z,9.43
2024-02-20T17:42:26.760Z,9.43
2024-02-20T17:44:53.539Z,9.43
2024-02-20T17:47:20.144Z,9.42
2024-02-20T17:49:46.755Z,9.41
2024-02-20T17:52:14.900Z,9.41
2024-02-20T17:54:41.464Z,9.40
2024-02-20T17:57:07.968Z,9.39
2024-02-20T17:59:34.441Z,9.37
2024-02-20T18:02:00.888Z,9.35
2024-02-20T18:04:31.747Z,9.34
2024-02-20T18:06:58.457Z,9.33
2024-02-20T18:09:25.025Z,9.31
2024-02-20T18:11:51.845Z,9.33
2024-02-20T18:14:18.430Z,9.30
2024-02-20T18:16:45.773Z,9.30
2024-02-20T18:19:14.146Z,9.30
2024-02-20T18:21:40.738Z,9.27
2024-02-20T18:24:07.705Z,9.28
2024-02-20T18:26:34.187Z,9.26
2024-02-20T18:29:00.720Z,9.26
2024-02-20T18:31:27.327Z,9.27
2024-02-20T18:33:53.871Z,9.24
2024-02-20T18:36:20.336Z,9.26
2024-02-20T18:38:47.057Z,9.26
2024-02-20T18:41:13.913Z,9.27
2024-02-20T18:43:40.661Z,9.27
2024-02-20T18:46:07.229Z,9.26
2024-02-20T18:48:33.949Z,9.27
2024-02-20T18:51:00.464Z,9.26
2024-02-20T18:53:26.934Z,9.26
2024-02-20T18:55:54.660Z,9.26
2024-02-20T18:58:22.210Z,9.24
2024-02-20T19:00:49.066Z,9.23
2024-02-20T19:03:16.199Z,9.24
2024-02-20T19:05:42.844Z,9.21
2024-02-20T19:08:09.527Z,9.19
2024-02-20T19:10:37.452Z,9.20
2024-02-20T19:13:05.016Z,9.19
2024-02-20T19:15:33.034Z,9.17
2024-02-20T19:17:59.811Z,9.16
2024-02-20T19:20:26.425Z,9.15
2024-02-20T19:22:52.978Z,9.13
2024-02-20T19:25:19.578Z,9.12
2024-02-20T19:27:48.973Z,9.11
2024-02-20T19:30:16.997Z,9.10
2024-02-20T19:32:44.536Z,9.11
2024-02-20T19:35:11.289Z,9.10
2024-02-20T19:37:37.965Z,9.06
2024-02-20T19:40:04.892Z,9.05
2024-02-20T19:42:31.458Z,9.03
2024-02-20T19:44:59.306Z,9.03
2024-02-20T19:47:25.874Z,9.03
2024-02-20T19:49:52.488Z,9.03
2024-02-20T19:52:19.107Z,9.00
2024-02-20T19:54:46.120Z,9.00
2024-02-20T19:57:14.221Z,8.97
2024-02-20T19:59:41.339Z,8.97
2024-02-20T20:02:07.975Z,8.98
2024-02-20T20:04:34.634Z,8.99
2024-02-20T20:07:01.308Z,8.97
2024-02-20T20:09:27.909Z,8.98
2024-02-20T20:11:54.622Z,8.96
2024-02-20T20:14:23.966Z,8.97
2024-02-20T20:16:50.726Z,8.97
2024-02-20T20:19:17.317Z,8.97
2024-02-20T20:21:46.565Z,8.98
2024-02-20T20:24:17.910Z,9.00
2024-02-20T20:26:46.586Z,9.01
2024-02-20T20:29:13.528Z,9.01
2024-02-20T20:31:41.349Z,9.00
2024-02-20T20:34:08.205Z,9.01
2024-02-20T20:36:36.812Z,9.01
2024-02-20T20:39:05.965Z,9.02
2024-02-20T20:41:34.714Z,9.02
2024-02-20T20:44:01.519Z,9.03
2024-02-20T20:46:28.125Z,9.05
2024-02-20T20:48:54.604Z,9.05
2024-02-20T20:51:21.073Z,9.04
2024-02-20T20:53:47.554Z,9.05
2024-02-20T20:56:16.378Z,9.06
2024-02-20T20:58:42.911Z,9.07
2024-02-20T21:01:09.657Z,9.07
2024-02-20T21:03:36.338Z,9.09
2024-02-20T21:06:03.234Z,9.10
2024-02-20T21:08:30.173Z,9.11
2024-02-20T21:10:56.843Z,9.12
2024-02-20T21:13:23.533Z,9.13
2024-02-20T21:15:50.504Z,9.14
2024-02-20T21:18:17.217Z,9.15
2024-02-20T21:20:44.940Z,9.15
2024-02-20T21:23:15.810Z,9.16
2024-02-20T21:25:42.675Z,9.17
2024-02-20T21:28:09.319Z,9.18
2024-02-20T21:30:35.938Z,9.18
2024-02-20T21:33:02.580Z,9.18
2024-02-20T21:35:30.143Z,9.18
2024-02-20T21:37:57.297Z,9.18
2024-02-20T21:40:24.092Z,9.18
2024-02-20T21:42:50.681Z,9.19
2024-02-20T21:45:17.299Z,9.19
2024-02-20T21:47:43.861Z,9.22
2024-02-20T21:50:10.631Z,9.23
2024-02-20T21:52:37.229Z,9.23
2024-02-20T21:55:03.991Z,9.22
2024-02-20T21:57:30.436Z,9.25
2024-02-20T21:59:56.933Z,9.25
2024-02-20T22:02:27.132Z,9.26
2024-02-20T22:04:54.146Z,9.26
2024-02-20T22:07:20.712Z,9.26
2024-02-20T22:09:47.451Z,9.27
2024-02-20T22:12:14.074Z,9.27
2024-02-20T22:14:40.612Z,9.28
2024-02-20T22:17:07.110Z,9.28
2024-02-20T22:19:33.709Z,9.28
2024-02-20T22:22:00.313Z,9.28
2024-02-20T22:24:26.811Z,9.27
2024-02-20T22:26:53.397Z,9.26
2024-02-20T22:29:19.908Z,9.26
2024-02-20T22:31:46.567Z,9.27
2024-02-20T22:34:13.244Z,9.26
2024-02-20T22:36:39.850Z,9.25
2024-02-20T22:39:06.390Z,9.26
2024-02-20T22:41:32.880Z,9.26
2024-02-20T22:43:59.528Z,9.24
2024-02-20T22:46:26.254Z,9.25
2024-02-20T22:48:52.780Z,9.27
2024-02-20T22:51:19.311Z,9.26
2024-02-20T22:53:45.779Z,9.26
2024-02-20T22:56:12.373Z,9.26
2024-02-20T22:58:38.960Z,9.25
2024-02-20T23:01:05.792Z,9.25
2024-02-20T23:03:32.475Z,9.24
2024-02-20T23:05:59.131Z,9.22
2024-02-20T23:08:26.285Z,9.20
2024-02-20T23:10:52.834Z,9.16
2024-02-20T23:13:19.361Z,9.13
2024-02-20T23:15:46.229Z,9.10
2024-02-20T23:18:12.827Z,9.08
2024-02-20T23:20:39.414Z,9.10
2024-02-20T23:23:05.981Z,9.10
2024-02-20T23:25:32.494Z,9.10
2024-02-20T23:27:59.011Z,9.11
2024-02-20T23:30:25.516Z,9.10
2024-02-20T23:32:52.063Z,9.10
2024-02-20T23:35:18.738Z,9.09
2024-02-20T23:37:48.406Z,9.09
2024-02-20T23:40:16.371Z,9.10
2024-02-20T23:42:43.960Z,9.10
2024-02-20T23:45:12.186Z,9.10
2024-02-20T23:47:39.015Z,9.10
2024-02-20T23:50:06.501Z,9.11
2024-02-20T23:52:33.201Z,9.12
2024-02-20T23:54:59.827Z,9.12
2024-02-20T23:57:26.323Z,9.11
2024-02-20T23:59:56.299Z,9.11
